createdAt,value
2022-11-26T00:00:58.424Z,16.07
2022-11-26T00:03:26.733Z,17.23
2022-11-26T00:05:56.943Z,16.37
2022-11-26T00:08:30.911Z,15.27
2022-11-26T00:10:59.450Z,15.53
2022-11-26T00:13:31.677Z,15.27
2022-11-26T00:16:00.195Z,15.57
2022-11-26T00:18:28.343Z,16.83
2022-11-26T00:21:00.791Z,15.07
2022-11-26T00:23:30.098Z,14.87
2022-11-26T00:26:00.284Z,14.53
2022-11-26T00:28:32.777Z,14.10
2022-11-26T00:31:02.783Z,14.20
2022-11-26T00:33:31.514Z,14.73
2022-11-26T00:36:05.589Z,13.23
2022-11-26T00:38:34.273Z,14.83
2022-11-26T00:41:02.387Z,16.23
2022-11-26T00:43:32.260Z,14.50
2022-11-26T00:46:00.716Z,14.27
2022-11-26T00:48:28.778Z,15.67
2022-11-26T00:50:57.380Z,14.23
2022-11-26T00:53:27.428Z,14.40
2022-11-26T00:55:55.532Z,13.90
2022-11-26T00:58:28.716Z,13.73
2022-11-26T01:01:00.265Z,12.40
2022-11-26T01:03:29.781Z,11.10
2022-11-26T01:06:00.099Z,12.40
2022-11-26T01:08:32.663Z,12.83
2022-11-26T01:11:01.437Z,12.73
2022-11-26T01:13:29.904Z,11.90
2022-11-26T01:16:01.379Z,12.10
2022-11-26T01:18:30.056Z,12.37
2022-11-26T01:20:58.108Z,11.53
2022-11-26T01:23:26.656Z,12.17
2022-11-26T01:25:54.719Z,11.30
2022-11-26T01:28:22.848Z,9.70
2022-11-26T01:30:51.447Z,10.47
2022-11-26T01:33:20.887Z,12.53
2022-11-26T01:35:48.980Z,10.93
2022-11-26T01:38:17.826Z,9.70
2022-11-26T01:41:03.719Z,9.73
2022-11-26T01:43:36.353Z,10.67
2022-11-26T01:46:04.649Z,11.03
2022-11-26T01:48:35.666Z,9.93
2022-11-26T01:51:07.003Z,9.80
2022-11-26T01:53:41.554Z,10.37
2022-11-26T01:56:19.326Z,8.67
2022-11-26T01:58:52.014Z,9.27
2022-11-26T02:01:21.641Z,9.37
2022-11-26T02:03:59.810Z,9.10
2022-11-26T02:06:33.651Z,9.93
2022-11-26T02:09:05.190Z,8.67
2022-11-26T02:11:33.938Z,9.07
2022-11-26T02:14:04.854Z,9.63
2022-11-26T02:17:04.970Z,10.37
2022-11-26T02:20:04.619Z,9.43
2022-11-26T02:23:02.359Z,7.93
2022-11-26T02:25:50.868Z,9.17
2022-11-26T02:28:37.090Z,8.97
2022-11-26T02:31:11.323Z,9.63
2022-11-26T02:33:47.232Z,9.33
2022-11-26T02:36:22.383Z,10.63
2022-11-26T02:38:51.779Z,8.70
2022-11-26T02:41:20.526Z,8.53
2022-11-26T02:43:49.768Z,8.57
2022-11-26T02:46:21.792Z,8.47
2022-11-26T02:48:53.337Z,8.07
2022-11-26T02:51:29.465Z,8.87
2022-11-26T02:54:01.608Z,8.00
2022-11-26T02:56:31.448Z,7.97
2022-11-26T02:59:00.410Z,7.43
2022-11-26T03:01:35.088Z,8.37
2022-11-26T03:04:08.650Z,7.63
2022-11-26T03:06:38.442Z,7.20
2022-11-26T03:09:07.394Z,7.90
2022-11-26T03:11:35.751Z,8.30
2022-11-26T03:14:04.206Z,8.00
2022-11-26T03:16:33.743Z,8.27
2022-11-26T03:19:02.313Z,9.03
2022-11-26T03:21:30.754Z,8.43
2022-11-26T03:23:58.889Z,8.13
2022-11-26T03:26:27.076Z,7.63
2022-11-26T03:28:55.286Z,7.57
2022-11-26T03:31:23.384Z,7.57
2022-11-26T03:33:52.969Z,8.70
2022-11-26T03:36:21.091Z,7.70
2022-11-26T03:38:49.982Z,7.60
2022-11-26T03:41:18.210Z,8.20
2022-11-26T03:43:46.336Z,7.27
2022-11-26T03:46:14.514Z,7.27
2022-11-26T03:48:42.663Z,8.10
2022-11-26T03:51:12.267Z,7.37
2022-11-26T03:53:40.390Z,7.20
2022-11-26T03:56:09.171Z,8.60
2022-11-26T03:58:37.704Z,7.57
2022-11-26T04:01:10.882Z,7.37
2022-11-26T04:03:39.173Z,6.77
2022-11-26T04:06:08.168Z,7.10
2022-11-26T04:08:38.083Z,6.93
2022-11-26T04:11:06.799Z,8.37
2022-11-26T04:13:35.118Z,7.80
2022-11-26T04:16:03.335Z,7.23
2022-11-26T04:18:31.532Z,6.97
2022-11-26T04:20:59.637Z,7.90
2022-11-26T04:23:28.214Z,8.23
2022-11-26T04:25:58.138Z,7.83
2022-11-26T04:28:26.638Z,7.97
2022-11-26T04:30:54.719Z,7.97
2022-11-26T04:33:23.189Z,6.80
2022-11-26T04:35:51.949Z,7.37
2022-11-26T04:38:25.325Z,8.10
2022-11-26T04:40:54.599Z,6.97
2022-11-26T04:43:24.142Z,7.00
2022-11-26T04:45:52.367Z,7.77
2022-11-26T04:48:21.185Z,7.43
2022-11-26T04:50:50.146Z,7.17
2022-11-26T04:53:21.787Z,6.73
2022-11-26T04:55:52.119Z,7.30
2022-11-26T04:58:21.660Z,6.57
2022-11-26T05:00:51.614Z,7.00
2022-11-26T05:03:20.502Z,7.40
2022-11-26T05:05:49.972Z,7.30
2022-11-26T05:08:18.042Z,6.77
2022-11-26T05:10:46.519Z,7.43
2022-11-26T05:13:15.036Z,7.67
2022-11-26T05:15:43.168Z,7.00
2022-11-26T05:18:13.073Z,6.80
2022-11-26T05:20:41.691Z,7.83
2022-11-26T05:23:09.768Z,7.77
2022-11-26T05:25:38.352Z,7.13
2022-11-26T05:28:06.950Z,7.53
2022-11-26T05:30:37.023Z,7.57
2022-11-26T05:33:05.316Z,7.97
2022-11-26T05:35:35.166Z,7.77
2022-11-26T05:38:03.280Z,7.50
2022-11-26T05:40:31.488Z,8.27
2022-11-26T05:43:00.103Z,7.50
2022-11-26T05:45:29.141Z,6.80
2022-11-26T05:47:57.802Z,7.33
2022-11-26T05:50:25.930Z,7.50
2022-11-26T05:52:56.963Z,7.67
2022-11-26T05:55:25.542Z,7.40
2022-11-26T05:57:54.104Z,6.60
2022-11-26T06:00:22.430Z,7.43
2022-11-26T06:02:51.308Z,8.30
2022-11-26T06:05:19.750Z,7.67
2022-11-26T06:07:47.856Z,8.33
2022-11-26T06:10:17.457Z,8.60
2022-11-26T06:12:45.558Z,8.20
2022-11-26T06:15:14.113Z,7.93
2022-11-26T06:17:42.825Z,9.20
2022-11-26T06:20:12.061Z,8.97
2022-11-26T06:22:41.970Z,8.43
2022-11-26T06:25:14.280Z,9.50
2022-11-26T06:27:44.101Z,10.07
2022-11-26T06:30:13.426Z,9.70
2022-11-26T06:32:41.888Z,10.30
2022-11-26T06:35:11.208Z,10.47
2022-11-26T06:37:40.027Z,11.67
2022-11-26T06:40:10.471Z,9.40
2022-11-26T06:42:38.631Z,11.33
2022-11-26T06:45:11.011Z,11.17
2022-11-26T06:47:39.752Z,10.33
2022-11-26T06:50:10.879Z,10.63
2022-11-26T06:52:39.151Z,11.33
2022-11-26T06:55:08.790Z,12.13
2022-11-26T06:57:36.935Z,10.90
2022-11-26T07:00:07.639Z,11.23
2022-11-26T07:02:36.282Z,13.57
2022-11-26T07:05:04.615Z,13.03
2022-11-26T07:07:32.712Z,10.63
2022-11-26T07:10:01.343Z,12.57
2022-11-26T07:12:30.029Z,13.27
2022-11-26T07:14:58.130Z,13.33
2022-11-26T07:17:29.338Z,12.67
2022-11-26T07:19:57.452Z,13.63
2022-11-26T07:22:25.536Z,13.33
2022-11-26T07:24:54.219Z,12.73
2022-11-26T07:27:22.348Z,12.63
2022-11-26T07:29:51.789Z,12.67
2022-11-26T07:32:20.843Z,12.50
2022-11-26T07:34:52.589Z,11.33
2022-11-26T07:37:21.436Z,11.23
2022-11-26T07:39:49.626Z,11.97
2022-11-26T07:42:17.764Z,12.27
2022-11-26T07:44:46.380Z,12.20
2022-11-26T07:47:14.455Z,13.43
2022-11-26T07:49:42.527Z,13.43
2022-11-26T07:52:12.744Z,12.43
2022-11-26T07:54:41.147Z,13.20
2022-11-26T07:57:09.350Z,13.03
2022-11-26T07:59:37.943Z,14.00
2022-11-26T08:02:06.114Z,13.23
2022-11-26T08:04:34.254Z,15.40
2022-11-26T08:07:02.829Z,13.07
2022-11-26T08:09:32.495Z,13.53
2022-11-26T08:12:00.595Z,14.50
2022-11-26T08:14:29.394Z,13.20
2022-11-26T08:16:57.636Z,13.90
2022-11-26T08:19:27.061Z,14.07
2022-11-26T08:21:55.640Z,12.83
2022-11-26T08:24:24.123Z,12.63
2022-11-26T08:26:53.584Z,14.27
2022-11-26T08:29:21.663Z,13.90
2022-11-26T08:31:49.812Z,13.87
2022-11-26T08:34:18.904Z,13.20
2022-11-26T08:36:48.022Z,13.23
2022-11-26T08:39:20.010Z,14.53
2022-11-26T08:41:52.444Z,13.83
2022-11-26T08:44:23.030Z,12.73
2022-11-26T08:46:51.658Z,13.20
2022-11-26T08:49:19.796Z,12.33
2022-11-26T08:51:48.381Z,13.23
2022-11-26T08:54:16.579Z,13.90
2022-11-26T08:56:44.684Z,13.37
2022-11-26T08:59:12.999Z,14.97
2022-11-26T09:01:42.568Z,14.33
2022-11-26T09:04:10.655Z,15.70
2022-11-26T09:06:41.092Z,14.70
2022-11-26T09:09:17.991Z,15.93
2022-11-26T09:11:49.057Z,14.97
2022-11-26T09:14:18.981Z,15.50
2022-11-26T09:16:48.998Z,14.10
2022-11-26T09:19:18.048Z,17.13
2022-11-26T09:21:46.763Z,15.63
2022-11-26T09:24:16.533Z,16.43
2022-11-26T09:26:45.241Z,16.17
2022-11-26T09:29:14.701Z,16.33
2022-11-26T09:32:07.395Z,17.53
2022-11-26T09:34:33.791Z,17.17
2022-11-26T09:37:02.187Z,14.90
2022-11-26T09:39:30.771Z,15.67
2022-11-26T09:42:06.644Z,16.60
2022-11-26T09:45:01.025Z,18.03
2022-11-26T09:47:33.219Z,16.20
2022-11-26T09:50:08.869Z,15.67
2022-11-26T09:52:42.562Z,16.40
2022-11-26T09:55:17.914Z,16.43
2022-11-26T09:57:55.907Z,15.70
2022-11-26T10:00:27.100Z,15.80
2022-11-26T10:02:56.741Z,17.27
2022-11-26T10:05:41.146Z,15.83
2022-11-26T10:08:27.666Z,16.27
2022-11-26T10:11:03.782Z,16.70
2022-11-26T10:13:41.595Z,15.23
2022-11-26T10:16:18.097Z,15.80
2022-11-26T10:18:57.652Z,16.27
2022-11-26T10:21:57.038Z,15.63
2022-11-26T10:24:28.275Z,14.87
2022-11-26T10:26:57.309Z,15.53
2022-11-26T10:29:29.249Z,16.60
2022-11-26T10:32:02.169Z,15.30
2022-11-26T10:34:39.488Z,14.50
2022-11-26T10:37:10.131Z,14.20
2022-11-26T10:39:38.306Z,14.30
2022-11-26T10:42:14.805Z,15.27
2022-11-26T10:44:43.426Z,14.70
2022-11-26T10:47:24.639Z,14.07
2022-11-26T10:49:54.655Z,15.53
2022-11-26T10:52:28.683Z,14.23
2022-11-26T10:55:28.046Z,13.43
2022-11-26T10:58:02.628Z,14.43
2022-11-26T11:00:38.309Z,14.70
2022-11-26T11:03:16.051Z,14.67
2022-11-26T11:05:45.799Z,14.77
2022-11-26T11:08:29.285Z,13.43
2022-11-26T11:11:00.532Z,14.37
2022-11-26T11:13:41.696Z,13.30
2022-11-26T11:16:11.964Z,13.17
2022-11-26T11:18:50.020Z,14.20
2022-11-26T11:21:21.086Z,14.97
2022-11-26T11:26:43.682Z,14.67
2022-11-26T11:29:27.131Z,13.20
2022-11-26T11:31:56.472Z,14.50
2022-11-26T11:34:28.932Z,13.70
2022-11-26T11:37:01.423Z,13.33
2022-11-26T11:39:32.890Z,13.73
2022-11-26T11:42:03.164Z,14.57
2022-11-26T11:44:39.786Z,14.23
2022-11-26T11:47:31.596Z,13.93
2022-11-26T11:50:15.203Z,14.13
2022-11-26T11:52:55.283Z,13.93
2022-11-26T11:55:29.910Z,14.93
2022-11-26T11:58:16.193Z,14.17
2022-11-26T12:00:52.227Z,14.27
2022-11-26T12:03:50.724Z,14.17
2022-11-26T12:06:29.354Z,14.50
2022-11-26T12:09:08.190Z,15.47
2022-11-26T12:11:50.084Z,13.77
2022-11-26T12:14:23.790Z,15.17
2022-11-26T12:16:55.787Z,14.57
2022-11-26T12:19:35.211Z,13.33
2022-11-26T12:22:09.039Z,13.53
2022-11-26T12:24:43.174Z,12.97
2022-11-26T12:27:26.058Z,13.47
2022-11-26T12:29:59.021Z,13.93
2022-11-26T12:32:34.909Z,13.40
2022-11-26T12:35:08.061Z,14.50
2022-11-26T12:37:40.359Z,14.23
2022-11-26T12:40:17.655Z,14.97
2022-11-26T12:42:57.533Z,14.90
2022-11-26T12:45:40.096Z,14.30
2022-11-26T12:48:19.898Z,14.93
2022-11-26T12:50:53.483Z,13.47
2022-11-26T12:53:33.202Z,13.40
2022-11-26T12:56:10.172Z,14.13
2022-11-26T12:58:47.546Z,13.03
2022-11-26T13:01:15.963Z,13.50
2022-11-26T13:03:44.300Z,14.37
2022-11-26T13:06:26.621Z,13.07
2022-11-26T13:09:02.242Z,13.27
2022-11-26T13:11:41.525Z,12.57
2022-11-26T13:14:18.731Z,13.00
2022-11-26T13:16:55.284Z,12.00
2022-11-26T13:19:30.869Z,12.07
2022-11-26T13:22:37.914Z,12.20
2022-11-26T13:25:32.743Z,12.13
2022-11-26T13:28:07.676Z,11.83
2022-11-26T13:30:46.463Z,12.40
2022-11-26T13:33:48.635Z,12.20
2022-11-26T13:36:50.209Z,11.67
2022-11-26T13:39:54.546Z,11.80
2022-11-26T13:42:44.851Z,10.90
2022-11-26T13:45:33.054Z,13.67
2022-11-26T13:48:08.614Z,12.40
2022-11-26T13:50:43.025Z,12.10
2022-11-26T13:53:17.062Z,13.07
2022-11-26T13:55:49.479Z,11.73
2022-11-26T13:58:22.027Z,11.87
2022-11-26T14:00:50.654Z,12.27
2022-11-26T14:03:48.399Z,14.27
2022-11-26T14:06:17.352Z,14.73
2022-11-26T14:08:49.670Z,12.63
2022-11-26T14:11:54.416Z,13.23
2022-11-26T14:14:32.718Z,11.90
2022-11-26T14:17:16.300Z,12.77
2022-11-26T14:20:02.918Z,12.23
2022-11-26T14:22:34.044Z,12.43
2022-11-26T14:25:04.823Z,12.53
2022-11-26T14:27:35.752Z,13.53
2022-11-26T14:30:26.350Z,14.67
2022-11-26T14:33:13.005Z,13.60
2022-11-26T14:35:53.403Z,12.20
2022-11-26T14:38:25.738Z,13.27
2022-11-26T14:41:01.287Z,13.40
2022-11-26T14:43:30.886Z,13.97
2022-11-26T14:46:06.071Z,13.50
2022-11-26T14:48:37.315Z,13.67
2022-11-26T14:51:09.461Z,14.37
2022-11-26T14:53:43.915Z,14.40
2022-11-26T14:56:15.758Z,12.57
2022-11-26T14:58:48.106Z,13.13
2022-11-26T15:01:22.187Z,13.40
2022-11-26T15:03:58.864Z,14.40
2022-11-26T15:06:34.830Z,13.17
2022-11-26T15:09:15.344Z,13.53
2022-11-26T15:11:49.211Z,12.53
2022-11-26T15:14:22.289Z,13.50
2022-11-26T15:16:57.258Z,14.10
2022-11-26T15:19:26.443Z,12.57
2022-11-26T15:21:56.007Z,13.77
2022-11-26T15:24:24.226Z,13.40
2022-11-26T15:26:52.375Z,13.10
2022-11-26T15:29:31.767Z,13.07
2022-11-26T15:32:00.935Z,13.07
2022-11-26T15:34:30.301Z,12.90
2022-11-26T15:37:00.122Z,13.93
2022-11-26T15:39:31.410Z,13.50
2022-11-26T15:42:06.236Z,13.63
2022-11-26T15:44:42.236Z,12.10
2022-11-26T15:47:20.132Z,13.73
2022-11-26T15:49:52.198Z,13.30
2022-11-26T15:52:25.566Z,11.50
2022-11-26T15:55:16.813Z,13.33
2022-11-26T15:57:47.196Z,12.43
2022-11-26T16:00:23.373Z,12.83
2022-11-26T16:02:52.814Z,12.80
2022-11-26T16:05:29.102Z,12.33
2022-11-26T16:08:00.538Z,11.57
2022-11-26T16:10:31.555Z,12.20
2022-11-26T16:13:27.237Z,12.47
2022-11-26T16:16:01.303Z,11.70
2022-11-26T16:18:36.622Z,13.23
2022-11-26T16:21:08.459Z,11.63
2022-11-26T16:23:38.709Z,12.77
2022-11-26T16:26:17.586Z,11.33
2022-11-26T16:28:46.993Z,11.07
2022-11-26T16:31:16.145Z,10.60
2022-11-26T16:33:45.797Z,11.03
2022-11-26T16:36:22.816Z,11.73
2022-11-26T16:38:53.571Z,12.00
2022-11-26T16:41:25.507Z,11.17
2022-11-26T16:43:53.691Z,11.73
2022-11-26T16:46:25.116Z,11.17
2022-11-26T16:48:53.538Z,11.37
2022-11-26T16:51:22.224Z,11.40
2022-11-26T16:53:52.245Z,10.90
2022-11-26T16:56:24.331Z,10.60
2022-11-26T16:58:53.196Z,11.90
2022-11-26T17:01:21.652Z,9.63
2022-11-26T17:03:49.815Z,11.67
2022-11-26T17:06:23.310Z,10.47
2022-11-26T17:08:53.065Z,11.63
2022-11-26T17:11:21.211Z,11.40
2022-11-26T17:13:49.488Z,11.20
2022-11-26T17:16:20.169Z,12.33
2022-11-26T17:18:49.035Z,12.50
2022-11-26T17:21:18.335Z,11.63
2022-11-26T17:23:46.387Z,11.93
2022-11-26T17:26:20.289Z,13.07
2022-11-26T17:28:48.829Z,12.70
2022-11-26T17:31:17.271Z,14.20
2022-11-26T17:33:45.498Z,12.60
2022-11-26T17:36:17.384Z,12.70
2022-11-26T17:38:45.999Z,13.27
2022-11-26T17:41:16.507Z,13.10
2022-11-26T17:43:44.749Z,14.07
2022-11-26T17:46:19.487Z,13.77
2022-11-26T17:48:48.306Z,14.77
2022-11-26T17:51:17.212Z,13.20
2022-11-26T17:53:45.427Z,13.10
2022-11-26T17:56:19.253Z,14.03
2022-11-26T17:58:48.098Z,13.10
2022-11-26T18:01:17.005Z,13.77
2022-11-26T18:03:46.046Z,13.83
2022-11-26T18:06:17.066Z,13.67
2022-11-26T18:08:45.528Z,13.40
2022-11-26T18:11:14.865Z,14.47
2022-11-26T18:13:45.353Z,16.10
2022-11-26T18:16:13.544Z,15.10
2022-11-26T18:18:42.065Z,14.77
2022-11-26T18:21:10.606Z,14.40
2022-11-26T18:23:38.666Z,13.37
2022-11-26T18:26:15.220Z,13.67
2022-11-26T18:28:44.667Z,12.97
2022-11-26T18:31:13.362Z,14.23
2022-11-26T18:33:41.695Z,15.37
2022-11-26T18:36:10.296Z,13.20
2022-11-26T18:38:39.102Z,13.03
2022-11-26T18:41:08.649Z,13.30
2022-11-26T18:43:39.308Z,11.87
2022-11-26T18:46:16.008Z,12.77
2022-11-26T18:48:46.998Z,13.60
2022-11-26T18:51:16.584Z,12.23
2022-11-26T18:53:45.547Z,12.53
2022-11-26T18:56:15.738Z,12.33
2022-11-26T18:58:44.988Z,11.77
2022-11-26T19:01:16.133Z,13.40
2022-11-26T19:03:44.884Z,12.63
2022-11-26T19:06:16.713Z,13.37
2022-11-26T19:08:45.328Z,13.40
2022-11-26T19:11:15.082Z,12.47
2022-11-26T19:13:43.891Z,15.23
2022-11-26T19:16:16.950Z,14.83
2022-11-26T19:18:46.105Z,12.83
2022-11-26T19:21:21.860Z,13.30
2022-11-26T19:23:50.503Z,12.77
2022-11-26T19:26:19.368Z,16.93
2022-11-26T19:28:48.231Z,15.07
2022-11-26T19:31:21.524Z,14.10
2022-11-26T19:33:54.279Z,14.17
2022-11-26T19:36:24.399Z,12.93
2022-11-26T19:38:55.911Z,13.13
2022-11-26T19:41:25.960Z,12.07
2022-11-26T19:43:54.870Z,13.77
2022-11-26T19:46:25.907Z,13.53
2022-11-26T19:48:55.821Z,12.67
2022-11-26T19:51:26.288Z,12.53
2022-11-26T19:53:58.686Z,12.87
2022-11-26T19:56:29.151Z,12.67
2022-11-26T19:58:58.856Z,14.73
2022-11-26T20:01:30.722Z,14.50
2022-11-26T20:04:01.002Z,13.90
2022-11-26T20:06:31.056Z,13.43
2022-11-26T20:08:59.556Z,12.07
2022-11-26T20:11:29.713Z,13.97
2022-11-26T20:13:58.884Z,13.63
2022-11-26T20:16:31.247Z,12.30
2022-11-26T20:19:00.432Z,13.23
2022-11-26T20:21:31.768Z,11.50
2022-11-26T20:24:01.919Z,12.20
2022-11-26T20:26:31.988Z,13.00
2022-11-26T20:29:03.402Z,12.87
2022-11-26T20:31:33.324Z,13.23
2022-11-26T20:34:03.642Z,13.10
2022-11-26T20:36:32.523Z,14.43
2022-11-26T20:39:02.704Z,14.40
2022-11-26T20:41:31.958Z,14.53
2022-11-26T20:44:00.179Z,16.60
2022-11-26T20:46:28.890Z,15.03
2022-11-26T20:48:58.656Z,15.03
2022-11-26T20:51:26.959Z,14.27
2022-11-26T20:53:59.145Z,14.17
2022-11-26T20:56:27.675Z,14.97
2022-11-26T20:58:56.239Z,12.90
2022-11-26T21:01:26.427Z,15.47
2022-11-26T21:03:56.062Z,13.20
2022-11-26T21:06:30.304Z,14.40
2022-11-26T21:09:00.754Z,14.00
2022-11-26T21:11:31.428Z,13.90
2022-11-26T21:14:01.817Z,15.17
2022-11-26T21:16:30.901Z,12.27
2022-11-26T21:18:59.812Z,12.37
2022-11-26T21:21:30.273Z,12.40
2022-11-26T21:23:58.747Z,11.67
2022-11-26T21:26:27.863Z,12.90
2022-11-26T21:28:58.076Z,13.77
2022-11-26T21:31:27.139Z,13.97
2022-11-26T21:33:57.111Z,13.43
2022-11-26T21:36:26.838Z,12.37
2022-11-26T21:38:56.412Z,11.63
2022-11-26T21:41:25.922Z,12.00
2022-11-26T21:43:54.694Z,12.70
2022-11-26T21:46:25.049Z,13.93
2022-11-26T21:48:54.167Z,12.53
2022-11-26T21:51:23.461Z,13.17
2022-11-26T21:53:52.285Z,11.80
2022-11-26T21:56:25.060Z,12.13
2022-11-26T21:58:53.559Z,12.57
2022-11-26T22:01:25.473Z,12.40
2022-11-26T22:03:55.620Z,11.67
2022-11-26T22:06:25.143Z,11.80
2022-11-26T22:08:53.740Z,12.03
2022-11-26T22:11:26.171Z,12.00
2022-11-26T22:13:55.112Z,12.37
2022-11-26T22:16:24.910Z,11.13
2022-11-26T22:18:54.625Z,12.47
2022-11-26T22:21:25.388Z,11.53
2022-11-26T22:23:54.292Z,11.60
2022-11-26T22:26:24.496Z,11.67
2022-11-26T22:28:53.380Z,11.40
2022-11-26T22:31:23.558Z,10.53
2022-11-26T22:33:55.401Z,10.13
2022-11-26T22:36:24.419Z,11.87
2022-11-26T22:38:52.577Z,10.43
2022-11-26T22:41:21.511Z,9.77
2022-11-26T22:43:51.853Z,13.13
2022-11-26T22:46:21.743Z,10.70
2022-11-26T22:48:52.208Z,12.10
2022-11-26T22:51:20.739Z,9.90
2022-11-26T22:53:51.454Z,9.10
2022-11-26T22:56:20.243Z,10.70
2022-11-26T22:58:50.255Z,9.97
2022-11-26T23:01:22.831Z,9.30
2022-11-26T23:03:51.992Z,9.20
2022-11-26T23:06:21.608Z,9.53
2022-11-26T23:08:50.093Z,9.70
2022-11-26T23:11:22.618Z,9.50
2022-11-26T23:13:52.606Z,8.93
2022-11-26T23:16:23.432Z,11.87
2022-11-26T23:18:52.352Z,10.10
2022-11-26T23:21:22.968Z,9.73
2022-11-26T23:23:52.394Z,10.10
2022-11-26T23:26:26.778Z,10.63
2022-11-26T23:28:58.360Z,8.97
2022-11-26T23:31:30.384Z,10.40
2022-11-26T23:33:59.218Z,9.47
2022-11-26T23:36:28.542Z,10.43
2022-11-26T23:38:57.331Z,10.33
2022-11-26T23:41:25.784Z,10.43
2022-11-26T23:43:53.920Z,10.87
2022-11-26T23:46:25.566Z,10.93
2022-11-26T23:48:54.203Z,10.23
2022-11-26T23:51:24.157Z,10.20
2022-11-26T23:53:53.949Z,10.33
2022-11-26T23:56:24.619Z,10.37
2022-11-26T23:58:54.524Z,9.57
